General Aviation Weather

Text Reports

Enter one or more of the following location identifiers separated by a space:

Zip Code, Four-Character ICAO or Three-Character IATA airport codes.

METAR - Aviation Routine Weather Report
KTOR - Torrington, Wyoming
Updated at 6:53 AM GMT on January 28, 2015 (11:53 PM MST):
METAR KTOR 280653Z AUTO 24003KT 10SM CLR 06/M03 A2996 RMK AO2 SLP126 T00611033 402391022 $
TAF - Terminal Area Forecast
KTOR - Torrington, Wyoming
Updated at 6:53 AM GMT on January 28, 2015 (11:53 PM MST):
No TAF is currently available for this location.
Decoded:
No decoded TAF is available.
PIREP - Pilot Weather Report
KTOR - Torrington, Wyoming
Updated at 6:53 AM GMT on January 28, 2015 (11:53 PM MST):
No PIREP is currently available for this location.
AIRMET - Airmens Meteorological Information
KTOR - Torrington, Wyoming
Updated at 6:53 AM GMT on January 28, 2015 (11:53 PM MST):
No AIRMET is currently available for this location.
SIGMET - Significant Meteorological Information
KTOR - Torrington, Wyoming
Updated at 6:53 AM GMT on January 28, 2015 (11:53 PM MST):
No SIGMET is currently available for this location.
NOTAM - Notice to Airmen
KTOR - Torrington, Wyoming
Updated at 6:53 AM GMT on January 28, 2015 (11:53 PM MST):
No NOTAM is currently available for this location.
Forecast Area
KTOR - Torrington, Wyoming
Updated at 6:53 AM GMT on January 28, 2015 (11:53 PM MST):
No NOTAM is currently available for this location.
Aviation Weather Maps